createdAt,value
2023-01-07T00:02:17.091Z,81.07
2023-01-07T00:04:45.529Z,81.20
2023-01-07T00:09:54.325Z,82.65
2023-01-07T00:12:21.482Z,79.32
2023-01-07T00:14:50.384Z,86.25
2023-01-07T00:17:17.840Z,83.03
2023-01-07T00:19:44.733Z,78.85
2023-01-07T00:22:14.155Z,84.78
2023-01-07T00:24:42.557Z,77.43
2023-01-07T00:27:09.408Z,80.75
2023-01-07T00:29:37.654Z,82.38
2023-01-07T00:32:04.720Z,77.35
2023-01-07T00:34:32.213Z,78.68
2023-01-07T00:37:19.017Z,86.45
2023-01-07T00:39:46.038Z,83.13
2023-01-07T00:42:32.566Z,78.53
2023-01-07T00:45:05.176Z,79.68
2023-01-07T00:47:32.480Z,73.97
2023-01-07T00:50:00.655Z,82.32
2023-01-07T00:52:30.529Z,83.25
2023-01-07T00:54:59.190Z,80.68
2023-01-07T00:57:26.349Z,82.13
2023-01-07T00:59:53.157Z,86.45
2023-01-07T01:02:24.065Z,78.45
2023-01-07T01:04:50.983Z,89.90
2023-01-07T01:07:17.814Z,81.57
2023-01-07T01:09:44.602Z,76.63
2023-01-07T01:12:11.570Z,86.40
2023-01-07T01:14:38.446Z,84.60
2023-01-07T01:17:05.289Z,89.03
2023-01-07T01:19:32.186Z,91.47
2023-01-07T01:21:59.131Z,80.95
2023-01-07T01:24:25.991Z,88.40
2023-01-07T01:26:52.946Z,83.78
2023-01-07T01:29:19.834Z,83.30
2023-01-07T01:31:46.846Z,82.70
2023-01-07T01:34:13.843Z,80.70
2023-01-07T01:36:40.657Z,82.10
2023-01-07T01:39:08.703Z,79.82
2023-01-07T01:41:35.955Z,81.32
2023-01-07T01:44:03.002Z,80.63
2023-01-07T01:46:35.867Z,78.82
2023-01-07T01:49:08.064Z,75.68
2023-01-07T01:51:39.475Z,74.20
2023-01-07T01:54:10.985Z,74.07
2023-01-07T01:56:41.096Z,67.93
2023-01-07T01:59:13.356Z,67.50
2023-01-07T02:04:16.554Z,66.45
2023-01-07T02:07:07.030Z,66.13
2023-01-07T02:09:34.236Z,62.58
2023-01-07T02:12:22.871Z,70.13
2023-01-07T02:15:04.778Z,66.00
2023-01-07T02:17:56.587Z,73.32
2023-01-07T02:20:35.761Z,65.00
2023-01-07T02:23:11.427Z,68.15
2023-01-07T02:25:50.187Z,68.13
2023-01-07T02:28:41.771Z,64.55
2023-01-07T02:31:45.827Z,71.97
2023-01-07T02:34:43.506Z,82.35
2023-01-07T02:37:16.768Z,74.90
2023-01-07T02:39:59.781Z,75.95
2023-01-07T02:42:46.049Z,74.32
2023-01-07T02:45:26.749Z,69.05
2023-01-07T02:48:01.429Z,71.45
2023-01-07T02:50:28.298Z,70.10
2023-01-07T02:52:55.235Z,68.13
2023-01-07T02:55:35.534Z,77.18
2023-01-07T02:58:14.386Z,70.68
2023-01-07T03:00:50.654Z,72.05
2023-01-07T03:03:45.330Z,73.85
2023-01-07T03:06:40.190Z,75.13
2023-01-07T03:09:28.596Z,75.22
2023-01-07T03:12:03.309Z,68.30
2023-01-07T03:14:46.170Z,71.55
2023-01-07T03:17:19.376Z,71.65
2023-01-07T03:19:51.025Z,81.15
2023-01-07T03:22:20.440Z,83.63
2023-01-07T03:24:51.387Z,85.57
2023-01-07T03:27:20.985Z,74.15
2023-01-07T03:29:53.162Z,81.55
2023-01-07T03:33:01.684Z,71.70
2023-01-07T03:35:32.028Z,63.78
2023-01-07T03:38:02.027Z,63.83
2023-01-07T03:40:29.517Z,60.15
2023-01-07T03:42:56.411Z,64.50
2023-01-07T03:45:25.581Z,66.03
2023-01-07T03:47:55.586Z,59.20
2023-01-07T03:50:23.059Z,59.20
2023-01-07T03:52:51.015Z,67.78
2023-01-07T03:55:17.990Z,64.90
2023-01-07T03:57:44.889Z,65.15
2023-01-07T04:00:13.307Z,69.43
2023-01-07T04:02:40.208Z,69.03
2023-01-07T04:05:07.713Z,71.80
2023-01-07T04:07:34.515Z,70.30
2023-01-07T04:10:01.515Z,75.78
2023-01-07T04:12:28.415Z,64.20
2023-01-07T04:14:55.952Z,69.70
2023-01-07T04:17:23.506Z,67.13
2023-01-07T04:19:50.440Z,71.82
2023-01-07T04:22:17.244Z,69.47
2023-01-07T04:24:44.176Z,76.43
2023-01-07T04:27:11.015Z,69.90
2023-01-07T04:29:38.155Z,74.78
2023-01-07T04:32:05.323Z,81.93
2023-01-07T04:34:32.144Z,68.22
2023-01-07T04:36:58.940Z,70.40
2023-01-07T04:39:25.824Z,71.15
2023-01-07T04:41:52.781Z,73.13
2023-01-07T04:44:19.659Z,70.07
2023-01-07T04:46:46.536Z,67.93
2023-01-07T04:49:13.421Z,71.57
2023-01-07T04:51:40.546Z,79.93
2023-01-07T04:54:07.553Z,84.28
2023-01-07T04:56:34.419Z,86.75
2023-01-07T04:59:01.338Z,83.80
2023-01-07T05:01:31.109Z,83.63
2023-01-07T05:03:59.211Z,81.50
2023-01-07T05:06:34.870Z,87.40
2023-01-07T05:09:01.775Z,77.60
2023-01-07T05:11:28.627Z,79.68
2023-01-07T05:13:55.480Z,75.95
2023-01-07T05:16:22.464Z,76.50
2023-01-07T05:18:49.485Z,82.30
2023-01-07T05:21:16.318Z,80.47
2023-01-07T05:23:43.255Z,86.32
2023-01-07T05:26:10.451Z,86.00
2023-01-07T05:28:37.401Z,80.10
2023-01-07T05:31:04.509Z,87.13
2023-01-07T05:33:31.391Z,82.20
2023-01-07T05:35:58.286Z,80.25
2023-01-07T05:38:25.276Z,79.80
2023-01-07T05:40:52.168Z,76.13
2023-01-07T05:43:19.075Z,77.70
2023-01-07T05:45:46.629Z,82.47
2023-01-07T05:48:14.740Z,80.93
2023-01-07T05:50:42.275Z,79.60
2023-01-07T05:53:09.192Z,85.47
2023-01-07T05:55:38.621Z,87.22
2023-01-07T05:58:05.821Z,80.13
2023-01-07T06:00:33.224Z,88.95
2023-01-07T06:02:59.985Z,84.35
2023-01-07T06:05:26.965Z,84.43
2023-01-07T06:07:53.914Z,88.88
2023-01-07T06:10:21.224Z,90.57
2023-01-07T06:12:48.172Z,88.35
2023-01-07T06:15:15.056Z,88.88
2023-01-07T06:17:41.848Z,82.65
2023-01-07T06:20:09.625Z,87.57
2023-01-07T06:22:36.617Z,83.28
2023-01-07T06:25:04.216Z,85.75
2023-01-07T06:27:31.170Z,89.47
2023-01-07T06:29:58.004Z,93.43
2023-01-07T06:32:25.007Z,98.88
2023-01-07T06:34:52.250Z,92.30
2023-01-07T06:37:19.314Z,93.70
2023-01-07T06:39:46.282Z,102.03
2023-01-07T06:42:13.220Z,109.10
2023-01-07T06:44:40.162Z,101.40
2023-01-07T06:47:09.110Z,96.70
2023-01-07T06:49:36.802Z,92.80
2023-01-07T06:52:07.029Z,92.70
2023-01-07T06:54:33.949Z,91.13
2023-01-07T06:57:00.922Z,91.53
2023-01-07T06:59:28.026Z,93.43
2023-01-07T07:01:55.074Z,68.25
2023-01-07T07:04:22.038Z,63.95
2023-01-07T07:06:48.912Z,58.65
2023-01-07T07:09:15.963Z,57.95
2023-01-07T07:11:42.883Z,59.35
2023-01-07T07:14:09.798Z,57.70
2023-01-07T07:16:36.872Z,62.45
2023-01-07T07:19:03.845Z,63.05
2023-01-07T07:21:30.704Z,59.20
2023-01-07T07:23:57.653Z,58.10
2023-01-07T07:26:24.591Z,58.45
2023-01-07T07:28:52.798Z,85.63
2023-01-07T07:31:22.871Z,83.82
2023-01-07T07:33:49.926Z,97.65
2023-01-07T07:36:16.929Z,88.20
2023-01-07T07:38:44.017Z,95.60
2023-01-07T07:41:10.944Z,94.53
2023-01-07T07:43:38.575Z,97.15
2023-01-07T07:46:05.859Z,92.35
2023-01-07T07:48:32.905Z,101.90
2023-01-07T07:50:59.761Z,103.75
2023-01-07T07:53:28.206Z,101.88
2023-01-07T07:55:55.228Z,103.28
2023-01-07T07:58:22.186Z,100.03
2023-01-07T08:00:49.088Z,99.72
2023-01-07T08:03:16.093Z,91.75
2023-01-07T08:05:44.300Z,90.78
2023-01-07T08:08:13.982Z,95.90
2023-01-07T08:10:41.670Z,87.05
2023-01-07T08:13:10.027Z,85.53
2023-01-07T08:15:37.721Z,90.22
2023-01-07T08:18:07.603Z,87.40
2023-01-07T08:20:36.136Z,89.65
2023-01-07T08:23:04.807Z,88.60
2023-01-07T08:25:33.930Z,92.25
2023-01-07T08:28:01.852Z,85.07
2023-01-07T08:30:30.234Z,87.03
2023-01-07T08:32:57.833Z,76.28
2023-01-07T08:35:24.823Z,81.47
2023-01-07T08:37:52.300Z,82.80
2023-01-07T08:40:19.493Z,80.30
2023-01-07T08:42:46.364Z,80.40
2023-01-07T08:45:13.970Z,78.18
2023-01-07T08:47:40.912Z,72.50
2023-01-07T08:50:08.243Z,86.85
2023-01-07T08:52:35.276Z,83.45
2023-01-07T08:55:02.219Z,93.28
2023-01-07T08:57:29.265Z,85.82
2023-01-07T08:59:56.178Z,95.38
2023-01-07T09:02:23.164Z,95.68
2023-01-07T09:04:50.156Z,88.35
2023-01-07T09:07:17.758Z,84.80
2023-01-07T09:09:48.809Z,74.93
2023-01-07T09:12:15.723Z,73.10
2023-01-07T09:14:42.696Z,84.53
2023-01-07T09:17:12.266Z,66.88
2023-01-07T09:19:39.069Z,74.53
2023-01-07T09:22:06.222Z,73.00
2023-01-07T09:24:34.025Z,70.35
2023-01-07T09:27:01.270Z,66.82
2023-01-07T09:29:28.245Z,77.97
2023-01-07T09:31:55.776Z,78.03
2023-01-07T09:34:22.848Z,76.53
2023-01-07T09:36:49.896Z,79.30
2023-01-07T09:39:16.928Z,87.28
2023-01-07T09:41:49.503Z,71.97
2023-01-07T09:44:45.000Z,75.63
2023-01-07T09:47:16.152Z,71.88
2023-01-07T09:49:46.958Z,77.20
2023-01-07T09:52:38.444Z,68.22
2023-01-07T09:55:24.091Z,75.55
2023-01-07T09:57:51.181Z,78.95
2023-01-07T10:00:22.600Z,67.10
2023-01-07T10:03:06.807Z,72.68
2023-01-07T10:05:40.054Z,77.90
2023-01-07T10:08:31.636Z,79.72
2023-01-07T10:11:08.764Z,78.68
2023-01-07T10:14:07.098Z,76.90
2023-01-07T10:16:47.882Z,84.50
2023-01-07T10:19:51.737Z,81.40
2023-01-07T10:22:39.974Z,73.38
2023-01-07T10:25:22.471Z,72.95
2023-01-07T10:27:54.617Z,78.03
2023-01-07T10:30:32.047Z,84.70
2023-01-07T10:33:14.803Z,78.30
2023-01-07T10:35:50.718Z,71.60
2023-01-07T10:38:21.154Z,81.28
2023-01-07T10:44:54.087Z,77.32
2023-01-07T10:47:35.310Z,82.53
2023-01-07T10:50:31.746Z,82.38
2023-01-07T10:53:13.735Z,80.53
2023-01-07T10:55:59.543Z,77.15
2023-01-07T10:58:34.112Z,82.57
2023-01-07T11:01:01.206Z,83.43
2023-01-07T11:03:29.653Z,73.53
2023-01-07T11:06:06.904Z,72.45
2023-01-07T11:08:39.911Z,69.75
2023-01-07T11:11:11.869Z,75.93
2023-01-07T11:13:41.920Z,74.82
2023-01-07T11:16:17.473Z,70.80
2023-01-07T11:19:04.587Z,68.57
2023-01-07T11:21:44.127Z,72.45
2023-01-07T11:24:31.455Z,74.78
2023-01-07T11:27:17.254Z,75.05
2023-01-07T11:29:44.072Z,68.00
2023-01-07T11:32:30.044Z,70.50
2023-01-07T11:35:06.778Z,69.95
2023-01-07T11:37:42.781Z,71.22
2023-01-07T11:40:15.687Z,76.78
2023-01-07T11:42:59.614Z,70.13
2023-01-07T11:45:32.453Z,78.57
2023-01-07T11:48:15.288Z,76.75
2023-01-07T11:50:54.333Z,72.28
2023-01-07T11:53:28.112Z,66.32
2023-01-07T11:56:01.034Z,65.30
2023-01-07T11:58:31.490Z,69.43
2023-01-07T12:01:07.314Z,66.88
2023-01-07T12:03:35.726Z,71.28
2023-01-07T12:06:11.954Z,69.10
2023-01-07T12:08:49.607Z,71.72
2023-01-07T12:11:17.196Z,66.65
2023-01-07T12:13:49.280Z,65.18
2023-01-07T12:16:17.279Z,70.00
2023-01-07T12:18:50.309Z,60.55
2023-01-07T12:21:20.471Z,54.05
2023-01-07T12:24:20.735Z,57.28
2023-01-07T12:27:09.826Z,55.92
2023-01-07T12:30:05.449Z,45.00
2023-01-07T12:32:54.054Z,45.92
2023-01-07T12:35:29.487Z,45.30
2023-01-07T12:38:19.698Z,41.00
2023-01-07T12:41:00.647Z,43.50
2023-01-07T12:43:51.537Z,48.75
2023-01-07T12:46:19.990Z,44.78
2023-01-07T12:49:02.634Z,43.75
2023-01-07T12:51:37.117Z,42.55
2023-01-07T12:54:30.494Z,43.33
2023-01-07T12:57:03.734Z,48.10
2023-01-07T12:59:48.840Z,65.80
2023-01-07T13:02:39.329Z,41.65
2023-01-07T13:05:14.528Z,42.88
2023-01-07T13:07:46.358Z,45.55
2023-01-07T13:10:25.357Z,51.20
2023-01-07T13:12:57.115Z,48.20
2023-01-07T13:15:28.864Z,41.90
2023-01-07T13:17:58.097Z,46.40
2023-01-07T13:20:50.198Z,40.50
2023-01-07T13:23:35.177Z,38.42
2023-01-07T13:26:26.082Z,42.20
2023-01-07T13:29:28.884Z,39.38
2023-01-07T13:32:20.445Z,38.63
2023-01-07T13:34:50.361Z,39.97
2023-01-07T13:37:48.269Z,38.95
2023-01-07T13:40:21.544Z,40.47
2023-01-07T13:43:00.565Z,41.42
2023-01-07T13:45:34.365Z,43.20
2023-01-07T13:48:05.638Z,45.78
2023-01-07T13:50:44.629Z,43.80
2023-01-07T13:53:17.536Z,39.55
2023-01-07T13:55:46.243Z,39.88
2023-01-07T13:58:31.234Z,35.97
2023-01-07T14:01:02.425Z,36.35
2023-01-07T14:03:29.269Z,34.87
2023-01-07T14:06:21.278Z,36.88
2023-01-07T14:08:56.290Z,36.60
2023-01-07T14:11:42.387Z,39.15
2023-01-07T14:14:24.689Z,42.97
2023-01-07T14:17:12.692Z,43.58
2023-01-07T14:20:01.942Z,48.55
2023-01-07T14:22:34.506Z,54.60
2023-01-07T14:25:12.084Z,56.65
2023-01-07T14:27:59.019Z,65.00
2023-01-07T14:30:47.034Z,64.30
2023-01-07T14:33:21.466Z,63.03
2023-01-07T14:35:58.350Z,73.97
2023-01-07T14:38:34.356Z,74.78
2023-01-07T14:41:13.417Z,71.93
2023-01-07T14:43:46.045Z,69.13
2023-01-07T14:46:25.009Z,72.18
2023-01-07T14:49:03.931Z,74.47
2023-01-07T14:51:39.895Z,76.00
2023-01-07T14:54:40.746Z,70.93
2023-01-07T14:57:17.031Z,78.07
2023-01-07T15:00:05.918Z,72.32
2023-01-07T15:02:50.941Z,72.03
2023-01-07T15:05:17.773Z,75.45
2023-01-07T15:08:13.267Z,83.75
2023-01-07T15:11:00.526Z,76.82
2023-01-07T15:13:48.131Z,72.63
2023-01-07T15:16:16.269Z,82.80
2023-01-07T15:18:48.434Z,74.72
2023-01-07T15:21:26.631Z,74.28
2023-01-07T15:24:18.785Z,78.90
2023-01-07T15:27:08.639Z,78.13
2023-01-07T15:29:50.284Z,81.47
2023-01-07T15:32:28.891Z,82.65
2023-01-07T15:34:55.840Z,77.40
2023-01-07T15:37:22.789Z,88.75
2023-01-07T15:39:59.490Z,86.10
2023-01-07T15:42:27.456Z,76.47
2023-01-07T15:44:57.192Z,76.82
2023-01-07T15:47:41.452Z,82.68
2023-01-07T15:50:27.759Z,79.30
2023-01-07T15:53:00.489Z,81.00
2023-01-07T15:55:30.813Z,84.10
2023-01-07T15:58:03.026Z,82.70
2023-01-07T16:02:57.976Z,74.55
2023-01-07T16:05:27.955Z,76.60
2023-01-07T16:07:59.496Z,86.80
2023-01-07T16:10:29.134Z,86.13
2023-01-07T16:12:58.564Z,85.85
2023-01-07T16:15:27.185Z,90.50
2023-01-07T16:18:01.666Z,87.47
2023-01-07T16:20:31.884Z,74.55
2023-01-07T16:23:01.931Z,84.28
2023-01-07T16:25:40.268Z,73.10
2023-01-07T16:28:08.462Z,81.00
2023-01-07T16:30:40.191Z,83.43
2023-01-07T16:33:07.354Z,71.65
2023-01-07T16:35:36.124Z,78.50
2023-01-07T16:38:03.880Z,77.35
2023-01-07T16:40:36.359Z,81.57
2023-01-07T16:45:36.287Z,78.90
2023-01-07T16:48:13.479Z,80.60
2023-01-07T16:50:42.781Z,92.20
2023-01-07T16:53:26.256Z,80.93
2023-01-07T16:56:09.503Z,81.50
2023-01-07T16:58:42.244Z,122.20
2023-01-07T17:01:11.040Z,112.78
2023-01-07T17:04:02.082Z,108.97
2023-01-07T17:06:37.811Z,113.97
2023-01-07T17:09:04.972Z,105.38
2023-01-07T17:11:35.508Z,108.95
2023-01-07T17:14:02.860Z,116.57
2023-01-07T17:16:34.849Z,108.75
2023-01-07T17:19:41.200Z,121.03
2023-01-07T17:22:31.466Z,103.10
2023-01-07T17:25:12.632Z,96.13
2023-01-07T17:27:46.289Z,107.18
2023-01-07T17:30:20.544Z,105.60
2023-01-07T17:32:54.912Z,113.75
2023-01-07T17:35:24.200Z,100.65
2023-01-07T17:37:52.835Z,98.03
2023-01-07T17:40:20.827Z,103.85
2023-01-07T17:43:08.635Z,98.68
2023-01-07T17:45:35.958Z,90.63
2023-01-07T17:48:02.883Z,89.60
2023-01-07T17:50:36.434Z,96.00
2023-01-07T17:53:04.466Z,102.03
2023-01-07T17:55:44.292Z,96.90
2023-01-07T17:58:31.034Z,88.65
2023-01-07T18:00:59.963Z,97.28
2023-01-07T18:03:27.621Z,88.88
2023-01-07T18:05:54.665Z,85.28
2023-01-07T18:08:21.592Z,84.25
2023-01-07T18:11:16.926Z,93.38
2023-01-07T18:13:43.724Z,88.90
2023-01-07T18:16:16.841Z,82.25
2023-01-07T18:18:43.969Z,102.82
2023-01-07T18:21:14.323Z,89.68
2023-01-07T18:23:43.492Z,96.15
2023-01-07T18:26:11.718Z,91.97
2023-01-07T18:28:38.841Z,96.63
2023-01-07T18:31:09.684Z,93.85
2023-01-07T18:33:37.256Z,96.65
2023-01-07T18:36:05.252Z,99.97
2023-01-07T18:38:34.452Z,85.07
2023-01-07T18:41:01.715Z,91.80
2023-01-07T18:43:29.828Z,92.10
2023-01-07T18:45:57.989Z,84.50
2023-01-07T18:48:26.341Z,91.63
2023-01-07T18:50:53.695Z,95.85
2023-01-07T18:53:24.858Z,99.63
2023-01-07T18:55:59.851Z,96.13
2023-01-07T18:58:27.607Z,89.15
2023-01-07T19:00:54.651Z,100.50
2023-01-07T19:03:22.051Z,99.20
2023-01-07T19:05:49.222Z,100.25
2023-01-07T19:08:16.218Z,100.05
2023-01-07T19:10:44.982Z,96.20
2023-01-07T19:13:12.029Z,98.93
2023-01-07T19:15:40.903Z,99.28
2023-01-07T19:18:08.093Z,110.22
2023-01-07T19:20:41.747Z,104.70
2023-01-07T19:23:08.791Z,98.00
2023-01-07T19:25:35.633Z,98.45
2023-01-07T19:28:02.612Z,108.68
2023-01-07T19:30:29.461Z,103.30
2023-01-07T19:32:59.421Z,119.38
2023-01-07T19:35:27.446Z,119.75
2023-01-07T19:37:54.240Z,113.28
2023-01-07T19:40:21.075Z,102.82
2023-01-07T19:42:49.041Z,112.15
2023-01-07T19:45:18.293Z,108.78
2023-01-07T19:47:46.693Z,101.68
2023-01-07T19:50:15.228Z,97.40
2023-01-07T19:52:42.869Z,114.03
2023-01-07T19:55:11.395Z,105.65
2023-01-07T19:57:38.842Z,114.95
2023-01-07T20:00:08.712Z,108.15
2023-01-07T20:02:35.832Z,111.05
2023-01-07T20:05:04.310Z,110.05
2023-01-07T20:07:34.106Z,102.15
2023-01-07T20:10:01.751Z,119.28
2023-01-07T20:12:28.550Z,122.05
2023-01-07T20:14:55.363Z,113.15
2023-01-07T20:17:25.934Z,115.07
2023-01-07T20:19:53.452Z,124.05
2023-01-07T20:22:28.573Z,105.40
2023-01-07T20:24:55.687Z,113.50
2023-01-07T20:27:23.661Z,122.40
2023-01-07T20:29:50.593Z,117.57
2023-01-07T20:32:19.648Z,120.10
2023-01-07T20:34:49.300Z,120.57
2023-01-07T20:37:16.219Z,114.18
2023-01-07T20:39:45.350Z,98.75
2023-01-07T20:42:12.247Z,109.82
2023-01-07T20:47:36.469Z,95.50
2023-01-07T20:50:06.374Z,99.40
2023-01-07T20:52:33.361Z,112.07
2023-01-07T20:55:00.194Z,108.57
2023-01-07T21:00:08.824Z,96.85
2023-01-07T21:02:35.928Z,96.97
2023-01-07T21:05:09.154Z,99.95
2023-01-07T21:07:35.968Z,105.63
2023-01-07T21:10:03.013Z,102.10
2023-01-07T21:12:30.238Z,89.97
2023-01-07T21:14:57.167Z,110.00
2023-01-07T21:17:23.904Z,104.63
2023-01-07T21:19:50.932Z,109.93
2023-01-07T21:22:17.700Z,97.80
2023-01-07T21:24:44.718Z,94.05
2023-01-07T21:27:12.006Z,99.13
2023-01-07T21:29:38.895Z,101.38
2023-01-07T21:32:07.413Z,106.18
2023-01-07T21:34:34.195Z,116.93
2023-01-07T21:37:01.577Z,111.13
2023-01-07T21:39:30.165Z,112.03
2023-01-07T21:41:57.366Z,162.25
2023-01-07T21:44:24.493Z,170.55
2023-01-07T21:46:51.830Z,132.82
2023-01-07T21:49:19.180Z,142.13
2023-01-07T21:51:49.208Z,120.35
2023-01-07T21:54:16.190Z,117.05
2023-01-07T21:56:43.055Z,105.57
2023-01-07T21:59:10.145Z,105.22
2023-01-07T22:01:37.366Z,105.07
2023-01-07T22:04:04.594Z,101.97
2023-01-07T22:06:35.524Z,104.75
2023-01-07T22:09:05.522Z,105.65
2023-01-07T22:11:33.736Z,108.78
2023-01-07T22:14:03.311Z,105.78
2023-01-07T22:16:31.799Z,103.20
2023-01-07T22:19:02.628Z,104.00
2023-01-07T22:21:32.151Z,96.43
2023-01-07T22:24:01.828Z,105.90
2023-01-07T22:26:31.771Z,95.53
2023-01-07T22:29:02.918Z,103.25
2023-01-07T22:31:32.578Z,102.03
2023-01-07T22:33:59.738Z,100.55
2023-01-07T22:36:32.091Z,105.80
2023-01-07T22:39:06.435Z,94.57
2023-01-07T22:41:35.954Z,104.40
2023-01-07T22:44:06.962Z,108.40
2023-01-07T22:46:36.892Z,106.80
2023-01-07T22:49:03.817Z,99.85
2023-01-07T22:51:38.584Z,101.68
2023-01-07T22:54:06.170Z,109.68
2023-01-07T22:56:34.707Z,100.97
2023-01-07T22:59:02.955Z,110.32
2023-01-07T23:01:30.866Z,114.03
2023-01-07T23:03:57.896Z,111.95
2023-01-07T23:06:24.810Z,108.05
2023-01-07T23:08:51.606Z,108.78
2023-01-07T23:11:37.224Z,108.03
2023-01-07T23:14:04.390Z,110.75
2023-01-07T23:16:31.363Z,105.43
2023-01-07T23:18:58.271Z,108.65
2023-01-07T23:21:25.089Z,105.30
2023-01-07T23:23:54.626Z,113.93
2023-01-07T23:26:21.551Z,104.63
2023-01-07T23:28:50.441Z,111.75
2023-01-07T23:31:17.370Z,112.35
2023-01-07T23:33:44.227Z,110.38
2023-01-07T23:36:11.415Z,102.75
2023-01-07T23:38:38.775Z,102.03
2023-01-07T23:41:11.399Z,108.82
2023-01-07T23:43:38.829Z,87.55
2023-01-07T23:46:07.527Z,102.20
2023-01-07T23:48:36.915Z,95.82
2023-01-07T23:51:05.542Z,88.03
2023-01-07T23:53:32.663Z,96.97
2023-01-07T23:55:59.768Z,99.35
2023-01-07T23:58:26.655Z,107.88
